Time;durP1;ratioP1;P1;durP2;ratioP2;P2;SDS_P1;SDS_P2;PMS_P1;PMS_P2;Temp;Humidity;BMP_temperature;BMP_pressure;BME280_temperature;BME280_humidity;BME280_pressure;Samples;Min_cycle;Max_cycle;Signal;HPM_P1;HPM_P2
2023/08/18 00:01:28;;;;;;;18.77;6.07;;;;;;;;;;4942841;29;20054;-82
2023/08/18 00:03:59;;;;;;;12.10;5.43;;;;;;;;;;4922147;29;20048;-81
2023/08/18 00:06:30;;;;;;;22.80;6.38;;;;;;;;;;4927527;29;20043;-81
2023/08/18 00:09:07;;;;;;;17.35;8.25;;;;;;;;;;4944562;29;20047;-81
2023/08/18 00:11:40;;;;;;;21.08;8.52;;;;;;;;;;4922800;29;20059;-82
2023/08/18 00:14:12;;;;;;;24.50;8.80;;;;;;;;;;4934875;29;20062;-82
2023/08/18 00:16:43;;;;;;;21.63;9.15;;;;;;;;;;4935030;29;20051;-82
2023/08/18 00:19:17;;;;;;;21.13;8.32;;;;;;;;;;4949062;29;20098;-82
2023/08/18 00:21:50;;;;;;;15.60;7.68;;;;;;;;;;4941614;29;20039;-81
2023/08/18 00:24:21;;;;;;;17.63;7.38;;;;;;;;;;4924463;29;20048;-82
2023/08/18 00:26:54;;;;;;;18.27;6.15;;;;;;;;;;4926478;29;20058;-80
2023/08/18 00:29:34;;;;;;;21.98;8.80;;;;;;;;;;4944848;29;20043;-82
2023/08/18 00:32:04;;;;;;;19.30;8.55;;;;;;;;;;4908946;29;20059;-82
2023/08/18 00:35:11;;;;;;;21.48;7.85;;;;;;;;;;4909982;29;20074;-82
2023/08/18 00:37:45;;;;;;;19.77;7.65;;;;;;;;;;4888845;29;20079;-82
2023/08/18 00:40:55;;;;;;;15.27;6.97;;;;;;;;;;4890208;29;20071;-81
2023/08/18 00:43:27;;;;;;;13.55;6.45;;;;;;;;;;4873725;29;20155;-80
2023/08/18 00:46:01;;;;;;;17.05;6.57;;;;;;;;;;4905275;29;20049;-81
2023/08/18 00:48:31;;;;;;;15.25;6.57;;;;;;;;;;4894997;29;20496;-81
2023/08/18 00:51:07;;;;;;;17.88;6.47;;;;;;;;;;4900583;29;20044;-82
2023/08/18 00:53:41;;;;;;;16.23;7.03;;;;;;;;;;4901680;29;20067;-82
2023/08/18 00:56:13;;;;;;;19.63;6.78;;;;;;;;;;4900268;29;20052;-82
2023/08/18 00:58:44;;;;;;;;;;;;;;;;;;4901818;29;20045;-82
2023/08/18 01:01:21;;;;;;;17.73;6.53;;;;;;;;;;4900925;29;20449;-82
2023/08/18 01:03:55;;;;;;;14.40;6.35;;;;;;;;;;4916936;29;20056;-82
2023/08/18 01:06:26;;;;;;;16.08;6.22;;;;;;;;;;4916977;29;20059;-82
2023/08/18 01:08:56;;;;;;;16.05;6.40;;;;;;;;;;4905800;29;20406;-82
2023/08/18 01:11:36;;;;;;;12.00;6.13;;;;;;;;;;4957452;29;20056;-82
2023/08/18 01:14:15;;;;;;;14.35;5.82;;;;;;;;;;4956909;29;20050;-82
2023/08/18 01:17:12;;;;;;;16.63;7.25;;;;;;;;;;4923935;29;20398;-82
2023/08/18 01:19:45;;;;;;;15.60;5.68;;;;;;;;;;4957390;29;20058;-82
2023/08/18 01:22:18;;;;;;;12.27;8.13;;;;;;;;;;4940354;29;20042;-82
2023/08/18 01:25:01;;;;;;;13.30;5.78;;;;;;;;;;4939612;29;20062;-80
2023/08/18 01:27:36;;;;;;;16.10;6.35;;;;;;;;;;4939399;29;20506;-81
2023/08/18 01:30:07;;;;;;;14.57;5.70;;;;;;;;;;4937358;29;20055;-81
2023/08/18 01:33:01;;;;;;;15.95;5.18;;;;;;;;;;4938730;29;20055;-81
2023/08/18 01:35:41;;;;;;;15.73;6.47;;;;;;;;;;4934167;29;20162;-81
2023/08/18 01:38:16;;;;;;;11.07;5.45;;;;;;;;;;4930635;29;20110;-80
2023/08/18 01:40:48;;;;;;;12.55;5.05;;;;;;;;;;4945792;29;20394;-80
2023/08/18 01:43:20;;;;;;;11.90;5.30;;;;;;;;;;4929370;29;20051;-80
2023/08/18 01:45:54;;;;;;;14.50;4.97;;;;;;;;;;4933915;29;20051;-80
2023/08/18 01:48:28;;;;;;;14.93;5.32;;;;;;;;;;4948544;29;20047;-80
2023/08/18 01:50:59;;;;;;;10.95;4.93;;;;;;;;;;4946792;29;20051;-81
2023/08/18 01:53:30;;;;;;;12.93;5.35;;;;;;;;;;4938936;29;20063;-80
2023/08/18 01:56:02;;;;;;;11.63;5.03;;;;;;;;;;4947772;29;20042;-80
2023/08/18 01:58:34;;;;;;;9.60;4.82;;;;;;;;;;4956172;28;20044;-78
2023/08/18 02:01:05;;;;;;;11.00;4.43;;;;;;;;;;4951566;29;20031;-79
2023/08/18 02:03:36;;;;;;;10.65;5.07;;;;;;;;;;4953600;29;20046;-79
2023/08/18 02:06:12;;;;;;;10.75;4.85;;;;;;;;;;4935829;28;20048;-80
2023/08/18 02:08:48;;;;;;;13.63;5.25;;;;;;;;;;4948586;29;20043;-80
2023/08/18 02:11:56;;;;;;;13.90;5.00;;;;;;;;;;4877065;29;20052;-80
2023/08/18 02:14:28;;;;;;;12.85;4.88;;;;;;;;;;4952734;28;20063;-80
2023/08/18 02:17:00;;;;;;;9.88;4.95;;;;;;;;;;4938224;29;20055;-79
2023/08/18 02:19:32;;;;;;;10.48;4.90;;;;;;;;;;4938905;29;20380;-79
2023/08/18 02:22:03;;;;;;;9.98;4.40;;;;;;;;;;4947562;29;20054;-79
2023/08/18 02:24:34;;;;;;;9.70;4.50;;;;;;;;;;4929146;29;20047;-79
2023/08/18 02:27:04;;;;;;;15.38;5.47;;;;;;;;;;4946658;29;20052;-79
2023/08/18 02:32:53;;;;;;;10.20;4.43;;;;;;;;;;4928644;29;20429;-79
2023/08/18 02:40:22;;;;;;;14.95;4.82;;;;;;;;;;4934391;29;20487;-80
2023/08/18 02:42:55;;;;;;;9.73;4.75;;;;;;;;;;4939250;29;20402;-80
2023/08/18 02:45:26;;;;;;;11.82;4.80;;;;;;;;;;4936048;29;20051;-80
2023/08/18 02:47:57;;;;;;;10.20;4.60;;;;;;;;;;4935874;29;20051;-80
2023/08/18 02:50:30;;;;;;;;;;;;;;;;;;4918641;29;20383;-81
2023/08/18 02:53:03;;;;;;;11.57;4.18;;;;;;;;;;4918362;29;19922;-81
2023/08/18 02:55:36;;;;;;;8.43;4.25;;;;;;;;;;4918249;29;20068;-80
2023/08/18 02:58:08;;;;;;;11.25;4.55;;;;;;;;;;4936133;29;20395;-80
2023/08/18 03:00:39;;;;;;;8.38;4.68;;;;;;;;;;4935962;29;20063;-81
2023/08/18 03:03:11;;;;;;;16.50;4.72;;;;;;;;;;4904275;29;20051;-81
2023/08/18 03:05:41;;;;;;;10.48;4.47;;;;;;;;;;4937624;29;20047;-81
2023/08/18 03:08:13;;;;;;;13.57;4.30;;;;;;;;;;4937061;29;20051;-81
2023/08/18 03:10:55;;;;;;;19.40;4.78;;;;;;;;;;4937369;29;20055;-81
2023/08/18 03:13:30;;;;;;;10.57;4.22;;;;;;;;;;4919191;29;20051;-81
2023/08/18 03:16:03;;;;;;;11.25;4.43;;;;;;;;;;4937127;29;20044;-81
2023/08/18 03:18:34;;;;;;;12.18;4.03;;;;;;;;;;4919277;29;20059;-81
2023/08/18 03:21:07;;;;;;;12.65;5.25;;;;;;;;;;4936836;29;20059;-81
2023/08/18 03:23:42;;;;;;;10.20;4.40;;;;;;;;;;4936947;29;20047;-81
2023/08/18 03:26:12;;;;;;;9.65;4.43;;;;;;;;;;4920522;29;20505;-81
2023/08/18 03:28:46;;;;;;;12.68;4.78;;;;;;;;;;4918833;29;20047;-80
2023/08/18 03:31:21;;;;;;;10.18;4.38;;;;;;;;;;4919034;29;20059;-80
2023/08/18 03:33:53;;;;;;;14.98;4.72;;;;;;;;;;4918761;29;20062;-81
2023/08/18 03:36:23;;;;;;;11.75;4.82;;;;;;;;;;4904264;29;20048;-80
2023/08/18 03:38:54;;;;;;;13.50;4.40;;;;;;;;;;4936742;29;20043;-80
2023/08/18 03:41:28;;;;;;;11.40;4.30;;;;;;;;;;4918848;29;20052;-81
2023/08/18 03:44:00;;;;;;;11.40;4.50;;;;;;;;;;4918742;29;20495;-80
2023/08/18 03:46:31;;;;;;;8.40;3.83;;;;;;;;;;4936667;29;20047;-80
2023/08/18 03:49:05;;;;;;;8.15;3.90;;;;;;;;;;4919130;29;20058;-80
2023/08/18 03:51:42;;;;;;;9.73;3.90;;;;;;;;;;4919313;29;20051;-80
2023/08/18 03:54:16;;;;;;;9.25;4.30;;;;;;;;;;4918739;29;20507;-80
2023/08/18 03:56:46;;;;;;;9.98;4.30;;;;;;;;;;4918241;29;20059;-80
2023/08/18 03:59:17;;;;;;;9.52;4.15;;;;;;;;;;4918696;29;20422;-80
2023/08/18 04:01:50;;;;;;;11.88;4.38;;;;;;;;;;4935049;29;20503;-80
2023/08/18 04:04:21;;;;;;;13.25;4.22;;;;;;;;;;4918651;29;20059;-80
2023/08/18 04:06:51;;;;;;;9.48;4.35;;;;;;;;;;4936102;29;20055;-80
2023/08/18 04:09:23;;;;;;;13.52;4.40;;;;;;;;;;4935698;29;20048;-80
2023/08/18 04:11:53;;;;;;;10.68;4.70;;;;;;;;;;4918069;29;20451;-81
2023/08/18 04:14:25;;;;;;;9.18;4.43;;;;;;;;;;4936227;29;20062;-81
2023/08/18 04:16:58;;;;;;;9.70;3.83;;;;;;;;;;4918340;29;20051;-81
2023/08/18 04:19:30;;;;;;;9.27;3.95;;;;;;;;;;4917873;29;20052;-80
2023/08/18 04:22:02;;;;;;;8.57;4.25;;;;;;;;;;4934417;29;20060;-79
2023/08/18 04:24:33;;;;;;;13.27;4.72;;;;;;;;;;4917604;29;20067;-80
2023/08/18 04:27:06;;;;;;;10.50;4.03;;;;;;;;;;4935442;29;20050;-80
2023/08/18 04:29:39;;;;;;;8.80;3.88;;;;;;;;;;4936060;29;20482;-79
2023/08/18 04:32:09;;;;;;;8.90;3.88;;;;;;;;;;4917935;29;20052;-79
2023/08/18 04:34:41;;;;;;;11.75;3.88;;;;;;;;;;4917896;29;20157;-80
2023/08/18 04:37:16;;;;;;;8.65;4.30;;;;;;;;;;4936015;29;20043;-80
2023/08/18 04:39:49;;;;;;;12.65;4.65;;;;;;;;;;4918024;29;20048;-80
2023/08/18 04:42:19;;;;;;;9.80;4.28;;;;;;;;;;4917878;29;20060;-80
2023/08/18 04:44:51;;;;;;;11.75;4.43;;;;;;;;;;4917859;29;20051;-81
2023/08/18 04:47:24;;;;;;;12.07;4.35;;;;;;;;;;4902593;29;20062;-81
2023/08/18 04:49:55;;;;;;;12.90;4.30;;;;;;;;;;4902802;29;20411;-82
2023/08/18 04:52:27;;;;;;;;;;;;;;;;;;4918861;29;20048;-80
2023/08/18 04:55:02;;;;;;;12.00;4.25;;;;;;;;;;4917560;29;19922;-80
2023/08/18 04:57:33;;;;;;;8.93;4.45;;;;;;;;;;4917665;29;20071;-80
2023/08/18 05:00:09;;;;;;;14.38;4.45;;;;;;;;;;4902684;29;20406;-81
2023/08/18 05:02:42;;;;;;;9.27;4.63;;;;;;;;;;4917870;29;20052;-81
2023/08/18 05:05:12;;;;;;;11.77;4.97;;;;;;;;;;4917610;29;20082;-81
2023/08/18 05:07:43;;;;;;;11.80;5.07;;;;;;;;;;4935273;29;20044;-81
2023/08/18 05:10:14;;;;;;;16.20;4.82;;;;;;;;;;4934413;29;20063;-81
2023/08/18 05:12:45;;;;;;;9.40;4.47;;;;;;;;;;4917257;29;20415;-81
2023/08/18 05:15:21;;;;;;;10.20;4.68;;;;;;;;;;4902552;29;20094;-80
2023/08/18 05:17:53;;;;;;;10.93;4.57;;;;;;;;;;4918653;29;20047;-81
2023/08/18 05:20:24;;;;;;;10.55;4.88;;;;;;;;;;4935409;29;20082;-81
2023/08/18 05:22:54;;;;;;;11.82;5.30;;;;;;;;;;4934458;29;20066;-79
2023/08/18 05:25:26;;;;;;;14.50;4.63;;;;;;;;;;4933796;29;20054;-80
2023/08/18 05:27:57;;;;;;;13.63;4.95;;;;;;;;;;4934092;29;20121;-80
2023/08/18 05:30:28;;;;;;;11.02;5.45;;;;;;;;;;4935743;29;20059;-79
2023/08/18 05:33:01;;;;;;;15.57;5.28;;;;;;;;;;4935112;29;20061;-80
2023/08/18 05:35:32;;;;;;;13.10;5.57;;;;;;;;;;4933897;29;20052;-80
2023/08/18 05:38:11;;;;;;;13.32;4.63;;;;;;;;;;4938102;29;20063;-80
2023/08/18 05:40:46;;;;;;;12.10;4.70;;;;;;;;;;4937248;29;20181;-81
2023/08/18 05:43:21;;;;;;;11.25;4.60;;;;;;;;;;4939175;29;20051;-81
2023/08/18 05:45:52;;;;;;;10.27;4.82;;;;;;;;;;4938759;29;20051;-80
2023/08/18 05:48:23;;;;;;;17.52;5.47;;;;;;;;;;4938505;29;20051;-80
2023/08/18 05:50:53;;;;;;;12.45;5.32;;;;;;;;;;4938064;29;20051;-81
2023/08/18 05:53:27;;;;;;;12.02;5.00;;;;;;;;;;4922265;29;20044;-81
2023/08/18 05:55:59;;;;;;;10.50;4.50;;;;;;;;;;4937574;29;20052;-81
2023/08/18 05:58:35;;;;;;;9.05;4.88;;;;;;;;;;4920566;29;20403;-80
2023/08/18 06:01:05;;;;;;;10.57;4.82;;;;;;;;;;4938470;29;20044;-81
2023/08/18 06:03:35;;;;;;;10.23;4.38;;;;;;;;;;4938071;29;20407;-81
2023/08/18 06:06:08;;;;;;;15.35;4.30;;;;;;;;;;4936945;29;20403;-80
2023/08/18 06:08:42;;;;;;;10.35;4.25;;;;;;;;;;4938492;29;20479;-81
2023/08/18 06:11:15;;;;;;;14.02;5.00;;;;;;;;;;4936860;29;20482;-80
2023/08/18 06:13:46;;;;;;;10.45;4.60;;;;;;;;;;4937824;29;20381;-80
2023/08/18 06:16:17;;;;;;;9.85;4.47;;;;;;;;;;4937403;29;20051;-80
2023/08/18 06:18:55;;;;;;;12.82;5.15;;;;;;;;;;4937582;29;20059;-80
2023/08/18 06:21:25;;;;;;;16.55;4.80;;;;;;;;;;4919658;29;20048;-81
2023/08/18 06:24:01;;;;;;;11.50;4.25;;;;;;;;;;4937753;29;20379;-80
2023/08/18 06:26:33;;;;;;;13.45;4.22;;;;;;;;;;4937783;29;20043;-80
2023/08/18 06:29:04;;;;;;;9.07;3.80;;;;;;;;;;4937456;29;20058;-80
2023/08/18 06:31:34;;;;;;;10.93;4.25;;;;;;;;;;4936471;29;20054;-80
2023/08/18 06:34:06;;;;;;;9.00;3.80;;;;;;;;;;4936197;29;20063;-81
2023/08/18 06:36:38;;;;;;;10.00;4.43;;;;;;;;;;4936162;29;20055;-80
2023/08/18 06:39:10;;;;;;;13.70;4.72;;;;;;;;;;4937328;29;20498;-81
2023/08/18 06:41:43;;;;;;;8.70;3.83;;;;;;;;;;4936499;29;20063;-80
2023/08/18 06:44:14;;;;;;;14.00;3.63;;;;;;;;;;4919362;29;20522;-80
2023/08/18 06:46:47;;;;;;;12.25;4.50;;;;;;;;;;4919548;29;20518;-81
2023/08/18 06:49:21;;;;;;;12.02;4.30;;;;;;;;;;4936836;29;20061;-79
2023/08/18 06:51:52;;;;;;;13.85;4.40;;;;;;;;;;4919582;29;20491;-80
2023/08/18 06:54:22;;;;;;;11.32;4.72;;;;;;;;;;4920385;29;20047;-81
2023/08/18 06:56:54;;;;;;;11.90;4.03;;;;;;;;;;4920888;29;20050;-80
2023/08/18 06:59:29;;;;;;;10.52;3.97;;;;;;;;;;4935398;29;20062;-81
2023/08/18 07:02:03;;;;;;;9.73;4.05;;;;;;;;;;4935855;29;20047;-80
2023/08/18 07:04:37;;;;;;;9.13;4.05;;;;;;;;;;4936824;29;20499;-81
2023/08/18 07:07:08;;;;;;;6.82;3.60;;;;;;;;;;4936843;29;20055;-80
2023/08/18 07:09:41;;;;;;;8.60;3.85;;;;;;;;;;4936819;29;20044;-80
2023/08/18 07:12:12;;;;;;;11.13;3.78;;;;;;;;;;4936782;29;20047;-80
2023/08/18 07:14:44;;;;;;;10.52;3.97;;;;;;;;;;4903598;29;20074;-80
2023/08/18 07:17:17;;;;;;;10.30;3.92;;;;;;;;;;4936218;29;20056;-80
2023/08/18 07:19:50;;;;;;;10.15;3.92;;;;;;;;;;4936612;29;20058;-80
2023/08/18 07:22:20;;;;;;;12.07;4.00;;;;;;;;;;4936857;29;20078;-79
2023/08/18 07:24:53;;;;;;;10.23;3.67;;;;;;;;;;4904015;29;20505;-81
2023/08/18 07:27:26;;;;;;;8.18;3.83;;;;;;;;;;4936571;29;20047;-81
2023/08/18 07:29:57;;;;;;;11.48;3.83;;;;;;;;;;4919907;29;20067;-81
2023/08/18 07:32:31;;;;;;;10.27;3.72;;;;;;;;;;4919403;29;20047;-80
2023/08/18 07:35:08;;;;;;;9.48;3.65;;;;;;;;;;4918489;29;20059;-80
2023/08/18 07:37:41;;;;;;;9.10;3.60;;;;;;;;;;4936619;29;20051;-82
2023/08/18 07:40:24;;;;;;;10.95;3.92;;;;;;;;;;4936313;29;20047;-81
2023/08/18 07:42:55;;;;;;;12.38;3.83;;;;;;;;;;4936241;29;20399;-81
2023/08/18 07:45:27;;;;;;;7.32;3.72;;;;;;;;;;4918941;29;20411;-81
2023/08/18 07:48:00;;;;;;;8.00;3.60;;;;;;;;;;4936315;29;20052;-81
2023/08/18 07:50:31;;;;;;;;;;;;;;;;;;4937525;29;20495;-80
2023/08/18 07:53:01;;;;;;;10.07;3.60;;;;;;;;;;4942032;29;20381;-79
2023/08/18 07:55:32;;;;;;;8.40;3.70;;;;;;;;;;4950606;29;20043;-80
2023/08/18 07:58:05;;;;;;;8.43;3.40;;;;;;;;;;4966835;29;20052;-78
2023/08/18 08:00:38;;;;;;;10.90;3.72;;;;;;;;;;4937815;29;20043;-81
2023/08/18 08:03:09;;;;;;;11.60;3.65;;;;;;;;;;4937367;29;20051;-79
2023/08/18 08:05:42;;;;;;;10.57;3.25;;;;;;;;;;4955001;29;20050;-80
2023/08/18 08:08:12;;;;;;;10.38;3.22;;;;;;;;;;4954923;29;20054;-81
2023/08/18 08:10:43;;;;;;;8.73;3.33;;;;;;;;;;4954255;29;20051;-82
2023/08/18 08:13:15;;;;;;;12.05;3.28;;;;;;;;;;4954891;29;20124;-81
2023/08/18 08:15:48;;;;;;;8.40;3.45;;;;;;;;;;4937721;29;20061;-79
2023/08/18 08:18:20;;;;;;;10.15;3.22;;;;;;;;;;4955181;29;20062;-79
2023/08/18 08:20:56;;;;;;;7.45;2.80;;;;;;;;;;4955155;29;20062;-80
2023/08/18 08:23:27;;;;;;;7.03;3.10;;;;;;;;;;4953928;29;20048;-80
2023/08/18 08:25:57;;;;;;;11.25;3.30;;;;;;;;;;4953591;29;20411;-79
2023/08/18 08:28:38;;;;;;;10.73;3.13;;;;;;;;;;4954294;29;20054;-80
2023/08/18 08:31:13;;;;;;;9.27;3.15;;;;;;;;;;4954711;29;20043;-79
2023/08/18 08:33:46;;;;;;;6.97;3.25;;;;;;;;;;4953195;29;20055;-81
2023/08/18 08:36:18;;;;;;;;;;;;;;;;;;4954505;29;20055;-79
2023/08/18 08:38:48;;;;;;;7.05;2.78;;;;;;;;;;4954484;29;19929;-80
2023/08/18 08:41:27;;;;;;;6.88;3.10;;;;;;;;;;4953707;29;20048;-80
2023/08/18 08:43:57;;;;;;;13.23;3.20;;;;;;;;;;4954736;29;20047;-80
2023/08/18 08:46:30;;;;;;;8.88;3.00;;;;;;;;;;4936732;29;20066;-79
2023/08/18 08:49:05;;;;;;;7.47;2.92;;;;;;;;;;4953628;29;20039;-80
2023/08/18 08:51:40;;;;;;;7.07;2.58;;;;;;;;;;4953470;29;20066;-79
2023/08/18 08:54:13;;;;;;;9.60;3.25;;;;;;;;;;4954543;29;20390;-80
2023/08/18 08:56:48;;;;;;;6.22;2.85;;;;;;;;;;4954433;29;20047;-80
2023/08/18 08:59:22;;;;;;;7.28;2.92;;;;;;;;;;4954413;29;20050;-80
2023/08/18 09:01:54;;;;;;;6.45;2.90;;;;;;;;;;4936969;29;20051;-79
2023/08/18 09:04:26;;;;;;;7.38;3.00;;;;;;;;;;4954768;29;20043;-79
2023/08/18 09:07:00;;;;;;;6.80;2.85;;;;;;;;;;4954953;29;20047;-79
2023/08/18 09:09:30;;;;;;;12.18;2.90;;;;;;;;;;4953634;29;20058;-79
2023/08/18 09:12:07;;;;;;;13.20;3.33;;;;;;;;;;4954902;28;20151;-80
2023/08/18 09:14:42;;;;;;;9.65;2.78;;;;;;;;;;4958439;29;20054;-80
2023/08/18 09:17:13;;;;;;;6.60;3.00;;;;;;;;;;4940333;29;20398;-79
2023/08/18 09:19:44;;;;;;;11.00;3.13;;;;;;;;;;4940948;29;20055;-79
2023/08/18 09:22:22;;;;;;;11.32;2.65;;;;;;;;;;4957442;29;20047;-80
2023/08/18 09:24:56;;;;;;;;;;;;;;;;;;4958505;29;20054;-79
2023/08/18 09:27:30;;;;;;;7.65;2.72;;;;;;;;;;4957349;29;20400;-79
2023/08/18 09:30:07;;;;;;;6.75;2.85;;;;;;;;;;4940480;29;20061;-79
2023/08/18 09:32:39;;;;;;;7.45;2.40;;;;;;;;;;4957873;29;20542;-80
2023/08/18 09:35:13;;;;;;;8.00;2.70;;;;;;;;;;4957483;29;20054;-79
2023/08/18 09:37:43;;;;;;;11.38;2.95;;;;;;;;;;4956561;29;20051;-79
2023/08/18 09:40:15;;;;;;;6.53;2.70;;;;;;;;;;4956447;29;20494;-79
2023/08/18 09:42:49;;;;;;;7.65;2.90;;;;;;;;;;4957551;29;20047;-79
2023/08/18 09:45:23;;;;;;;4.68;2.40;;;;;;;;;;4937611;29;20055;-79
2023/08/18 09:48:00;;;;;;;14.00;2.50;;;;;;;;;;4952944;29;20048;-80
2023/08/18 09:50:35;;;;;;;12.23;3.40;;;;;;;;;;4957499;29;20051;-80
2023/08/18 09:53:09;;;;;;;6.75;2.83;;;;;;;;;;4957892;29;20394;-79
2023/08/18 09:55:46;;;;;;;9.88;2.85;;;;;;;;;;4956811;29;20047;-80
2023/08/18 09:58:32;;;;;;;7.95;3.30;;;;;;;;;;4957443;29;20047;-80
2023/08/18 10:01:09;;;;;;;10.93;3.30;;;;;;;;;;4957458;29;20410;-81
2023/08/18 10:03:49;;;;;;;8.60;2.63;;;;;;;;;;4956854;29;20047;-80
2023/08/18 10:06:21;;;;;;;7.68;2.88;;;;;;;;;;4955378;29;20039;-80
2023/08/18 10:08:54;;;;;;;9.18;2.80;;;;;;;;;;4955650;29;20044;-80
2023/08/18 10:11:28;;;;;;;7.55;2.60;;;;;;;;;;4957183;29;20490;-80
2023/08/18 10:14:17;;;;;;;9.40;3.53;;;;;;;;;;4942430;29;20047;-80
2023/08/18 10:16:52;;;;;;;7.07;3.05;;;;;;;;;;4920400;29;20052;-79
2023/08/18 10:19:52;;;;;;;13.10;3.08;;;;;;;;;;4942395;29;20502;-80
2023/08/18 10:22:25;;;;;;;8.43;3.50;;;;;;;;;;4943981;28;20035;-79
2023/08/18 10:24:57;;;;;;;11.95;3.78;;;;;;;;;;4952515;29;20410;-78
2023/08/18 10:27:30;;;;;;;11.90;3.70;;;;;;;;;;4936412;29;20039;-79
2023/08/18 10:30:21;;;;;;;11.80;4.32;;;;;;;;;;4920513;29;20058;-79
2023/08/18 10:32:54;;;;;;;8.15;3.38;;;;;;;;;;4952847;29;20039;-80
2023/08/18 10:35:27;;;;;;;10.75;3.58;;;;;;;;;;4955509;29;20410;-78
2023/08/18 10:38:07;;;;;;;7.78;3.42;;;;;;;;;;4955686;29;20067;-79
2023/08/18 10:40:39;;;;;;;8.38;3.33;;;;;;;;;;4955968;29;20059;-79
2023/08/18 10:43:16;;;;;;;9.43;3.30;;;;;;;;;;4955802;29;20055;-80
2023/08/18 10:45:52;;;;;;;9.80;3.42;;;;;;;;;;4939067;29;20050;-79
2023/08/18 10:48:27;;;;;;;10.02;4.07;;;;;;;;;;4955481;29;20043;-80
2023/08/18 10:51:00;;;;;;;11.63;3.55;;;;;;;;;;4955451;29;20050;-80
2023/08/18 10:53:39;;;;;;;9.55;3.35;;;;;;;;;;4955752;29;20090;-80
2023/08/18 10:56:12;;;;;;;6.82;3.00;;;;;;;;;;4955243;29;20502;-79
2023/08/18 10:58:43;;;;;;;7.57;2.33;;;;;;;;;;4934123;29;20050;-78
2023/08/18 11:01:13;;;;;;;7.75;2.38;;;;;;;;;;4936097;29;20387;-78
2023/08/18 11:03:46;;;;;;;6.50;2.05;;;;;;;;;;4936862;29;20047;-78
2023/08/18 11:06:21;;;;;;;6.00;1.63;;;;;;;;;;4936124;29;20051;-79
2023/08/18 11:08:51;;;;;;;14.35;2.13;;;;;;;;;;4949206;29;20039;-77
2023/08/18 11:11:28;;;;;;;5.35;1.90;;;;;;;;;;4954665;29;20046;-78
2023/08/18 11:14:01;;;;;;;7.18;1.50;;;;;;;;;;4955615;29;20051;-79
2023/08/18 11:16:38;;;;;;;5.78;1.70;;;;;;;;;;4938298;29;20055;-80
2023/08/18 11:19:09;;;;;;;3.60;1.52;;;;;;;;;;4955735;29;20502;-79
2023/08/18 11:21:40;;;;;;;6.22;1.50;;;;;;;;;;4950193;29;20051;-80
2023/08/18 11:24:16;;;;;;;3.75;1.58;;;;;;;;;;4945885;29;20048;-79
2023/08/18 11:26:51;;;;;;;4.07;1.40;;;;;;;;;;4947808;29;20047;-81
2023/08/18 11:29:22;;;;;;;11.40;1.60;;;;;;;;;;4947499;29;20058;-81
2023/08/18 11:31:55;;;;;;;7.05;1.55;;;;;;;;;;4943500;29;20048;-79
2023/08/18 11:34:25;;;;;;;6.80;1.38;;;;;;;;;;4946431;28;20047;-79
2023/08/18 11:37:04;;;;;;;6.57;1.50;;;;;;;;;;4946388;29;20059;-80
2023/08/18 11:39:36;;;;;;;4.35;1.33;;;;;;;;;;4943071;29;20042;-82
2023/08/18 11:42:06;;;;;;;5.82;1.70;;;;;;;;;;4945630;29;20047;-82
2023/08/18 11:44:42;;;;;;;10.57;2.42;;;;;;;;;;4945245;29;20039;-82
2023/08/18 11:47:14;;;;;;;12.82;1.65;;;;;;;;;;4944367;29;20043;-82
2023/08/18 11:49:45;;;;;;;8.30;1.63;;;;;;;;;;4946166;29;20052;-81
2023/08/18 11:52:19;;;;;;;6.10;1.58;;;;;;;;;;4942084;29;20046;-80
2023/08/18 11:54:58;;;;;;;7.43;1.60;;;;;;;;;;4942534;29;20043;-84
2023/08/18 11:57:31;;;;;;;7.55;1.50;;;;;;;;;;4952604;29;20054;-81
2023/08/18 12:00:10;;;;;;;4.88;1.38;;;;;;;;;;4954491;29;20477;-82
2023/08/18 12:02:46;;;;;;;7.53;1.52;;;;;;;;;;4936286;29;20051;-81
2023/08/18 12:05:23;;;;;;;7.65;1.55;;;;;;;;;;4954625;29;20035;-81
2023/08/18 12:07:55;;;;;;;5.53;1.50;;;;;;;;;;4954481;29;20035;-81
2023/08/18 12:10:26;;;;;;;;;;;;;;;;;;4938808;29;20511;-82
2023/08/18 12:12:59;;;;;;;6.38;1.30;;;;;;;;;;4954621;29;20021;-83
2023/08/18 12:15:30;;;;;;;12.10;1.55;;;;;;;;;;4937120;29;20434;-81
2023/08/18 12:18:02;;;;;;;4.72;1.40;;;;;;;;;;4954198;29;20051;-82
2023/08/18 12:20:33;;;;;;;5.60;1.35;;;;;;;;;;4921464;29;20059;-84
2023/08/18 12:23:03;;;;;;;6.13;1.30;;;;;;;;;;4918486;29;20058;-81
2023/08/18 12:25:38;;;;;;;11.88;1.55;;;;;;;;;;4923806;29;20360;-81
2023/08/18 12:28:09;;;;;;;4.38;1.40;;;;;;;;;;4903856;29;20056;-81
2023/08/18 12:30:39;;;;;;;4.80;1.23;;;;;;;;;;4936538;29;20058;-81
2023/08/18 12:33:11;;;;;;;5.65;1.30;;;;;;;;;;4952461;29;20498;-81
2023/08/18 12:35:43;;;;;;;12.63;1.58;;;;;;;;;;4955625;29;20047;-82
2023/08/18 12:38:19;;;;;;;4.72;1.15;;;;;;;;;;4934600;29;20051;-82
2023/08/18 12:40:50;;;;;;;6.60;1.20;;;;;;;;;;4941158;29;20390;-82
2023/08/18 12:43:23;;;;;;;6.38;1.70;;;;;;;;;;4935891;29;20052;-82
2023/08/18 12:45:53;;;;;;;6.05;1.70;;;;;;;;;;4919891;29;20051;-82
2023/08/18 12:48:24;;;;;;;4.03;1.27;;;;;;;;;;4946754;29;20054;-83
2023/08/18 12:50:55;;;;;;;5.18;1.23;;;;;;;;;;4944109;29;20583;-83
2023/08/18 12:53:25;;;;;;;6.43;1.30;;;;;;;;;;4951753;29;20047;-82
2023/08/18 12:55:57;;;;;;;10.52;1.58;;;;;;;;;;4959215;29;20043;-83
2023/08/18 12:58:43;;;;;;;6.72;1.42;;;;;;;;;;4959870;29;20414;-84
2023/08/18 13:01:16;;;;;;;5.22;1.35;;;;;;;;;;4959304;29;20051;-82
2023/08/18 13:03:49;;;;;;;6.93;1.20;;;;;;;;;;4944137;29;20051;-83
2023/08/18 13:06:23;;;;;;;5.20;1.63;;;;;;;;;;4959066;29;20054;-82
2023/08/18 13:13:42;;;;;;;5.88;1.33;;;;;;;;;;4981589;23;20052;-84
2023/08/18 13:16:46;;;;;;;8.38;1.50;;;;;;;;;;4919180;29;20068;-82
2023/08/18 13:45:45;;;;;;;33.55;16.27;;;;;;;;;;4959876;28;20048;-82
2023/08/18 13:48:29;;;;;;;26.52;14.57;;;;;;;;;;4959686;29;20043;-82
2023/08/18 13:51:25;;;;;;;14.30;5.15;;;;;;;;;;4942305;29;20039;-82
2023/08/18 13:55:22;;;;;;;10.80;2.65;;;;;;;;;;4957138;29;20043;-84
2023/08/18 14:01:24;;;;;;;9.10;2.35;;;;;;;;;;5242552;23;20058;-83
2023/08/18 14:04:33;;;;;;;12.25;2.13;;;;;;;;;;4940425;29;20055;-80
2023/08/18 14:07:04;;;;;;;5.47;2.67;;;;;;;;;;4942336;29;20050;-79
2023/08/18 14:09:34;;;;;;;13.18;5.85;;;;;;;;;;4942561;29;20526;-80
2023/08/18 14:12:06;;;;;;;6.53;2.90;;;;;;;;;;4959773;29;20483;-84
2023/08/18 14:14:37;;;;;;;7.00;3.45;;;;;;;;;;4943245;29;20043;-83
2023/08/18 14:21:43;;;;;;;14.23;5.80;;;;;;;;;;4947657;29;20059;-82
2023/08/18 14:24:38;;;;;;;81.15;35.15;;;;;;;;;;4923290;29;20048;-82
2023/08/18 14:27:16;;;;;;;19.38;5.38;;;;;;;;;;4922116;29;20173;-81
2023/08/18 14:29:49;;;;;;;9.75;2.63;;;;;;;;;;4939742;29;20040;-82
2023/08/18 14:32:21;;;;;;;42.72;14.80;;;;;;;;;;4940058;29;20051;-83
2023/08/18 14:34:55;;;;;;;13.13;4.63;;;;;;;;;;4938607;29;20414;-80
2023/08/18 14:37:26;;;;;;;28.10;8.27;;;;;;;;;;4924404;29;20058;-82
2023/08/18 14:39:58;;;;;;;39.20;10.85;;;;;;;;;;4938576;29;20047;-82
2023/08/18 14:42:29;;;;;;;18.73;5.65;;;;;;;;;;4938902;29;20527;-82
2023/08/18 14:45:01;;;;;;;18.40;4.60;;;;;;;;;;4916149;29;20109;-81
2023/08/18 14:47:34;;;;;;;14.30;4.10;;;;;;;;;;4937879;29;20047;-80
2023/08/18 14:50:05;;;;;;;57.30;17.00;;;;;;;;;;4937738;29;20422;-81
2023/08/18 14:52:58;;;;;;;42.20;12.55;;;;;;;;;;4937148;29;20044;-82
2023/08/18 14:55:38;;;;;;;23.13;8.05;;;;;;;;;;4938676;29;20066;-82
2023/08/18 14:58:37;;;;;;;13.52;4.93;;;;;;;;;;4925015;29;20486;-81
2023/08/18 15:01:37;;;;;;;13.68;4.80;;;;;;;;;;4922370;29;20082;-83
2023/08/18 15:04:07;;;;;;;17.88;5.95;;;;;;;;;;4920993;29;20043;-81
2023/08/18 15:06:39;;;;;;;20.67;5.22;;;;;;;;;;4937353;29;20063;-81
2023/08/18 15:09:34;;;;;;;18.00;5.72;;;;;;;;;;4920488;29;20495;-80
2023/08/18 15:12:07;;;;;;;21.00;7.45;;;;;;;;;;4920396;29;20459;-80
2023/08/18 15:14:51;;;;;;;20.73;6.28;;;;;;;;;;4904156;29;20066;-79
2023/08/18 15:18:07;;;;;;;10.68;4.88;;;;;;;;;;4927444;29;20044;-80
2023/08/18 15:21:04;;;;;;;9.80;3.35;;;;;;;;;;4937052;29;20043;-80
2023/08/18 15:23:58;;;;;;;7.20;2.85;;;;;;;;;;4921187;29;20048;-81
2023/08/18 15:27:20;;;;;;;6.47;2.88;;;;;;;;;;4919680;29;20169;-80
2023/08/18 15:30:08;;;;;;;7.03;2.65;;;;;;;;;;4924335;29;20078;-81
2023/08/18 15:32:45;;;;;;;7.63;2.65;;;;;;;;;;4936888;29;20058;-78
2023/08/18 15:35:19;;;;;;;8.27;3.20;;;;;;;;;;4936654;29;20047;-79
2023/08/18 15:37:51;;;;;;;11.10;2.65;;;;;;;;;;4935365;29;20051;-79
2023/08/18 15:40:22;;;;;;;9.23;3.63;;;;;;;;;;4920020;29;20062;-81
2023/08/18 15:42:53;;;;;;;4.68;1.90;;;;;;;;;;4921186;29;20067;-82
2023/08/18 15:45:27;;;;;;;4.00;1.98;;;;;;;;;;4937353;29;20399;-80
2023/08/18 15:48:01;;;;;;;6.60;1.80;;;;;;;;;;4938617;29;20161;-82
2023/08/18 15:50:32;;;;;;;7.70;1.70;;;;;;;;;;4920779;29;20055;-82
2023/08/18 15:53:04;;;;;;;3.95;1.80;;;;;;;;;;4936246;29;20187;-82
2023/08/18 15:55:45;;;;;;;6.40;1.70;;;;;;;;;;4918327;29;20052;-81
2023/08/18 15:58:17;;;;;;;2.28;1.13;;;;;;;;;;4919761;29;20050;-81
2023/08/18 16:00:50;;;;;;;3.63;1.20;;;;;;;;;;4918901;29;20059;-82
2023/08/18 16:03:21;;;;;;;2.75;1.05;;;;;;;;;;4929506;29;20463;-82
2023/08/18 16:05:51;;;;;;;4.95;1.30;;;;;;;;;;4925176;29;20078;-82
2023/08/18 16:08:22;;;;;;;3.60;1.10;;;;;;;;;;4942672;29;20409;-85
2023/08/18 16:10:54;;;;;;;1.42;0.70;;;;;;;;;;4912173;29;20133;-83